Time;durP1;ratioP1;P1;durP2;ratioP2;P2;SDS_P1;SDS_P2;PMS_P1;PMS_P2;Temp;Humidity;BMP_temperature;BMP_pressure;BME280_temperature;BME280_humidity;BME280_pressure;Samples;Min_cycle;Max_cycle;Signal;HPM_P1;HPM_P2
2024/02/10 00:01:03;;;;;;;15.55;11.52;;;;;;;5.07;100.00;93480.00;5067801;28;20554;-69
2024/02/10 00:03:29;;;;;;;12.82;9.63;;;;;;;5.03;100.00;93491.72;5068414;28;20047;-70
2024/02/10 00:06:00;;;;;;;14.52;12.88;;;;;;;4.98;100.00;93487.00;5067823;28;20100;-70
2024/02/10 00:08:27;;;;;;;14.13;12.70;;;;;;;4.98;100.00;93480.97;5074151;28;20046;-70
2024/02/10 00:10:55;;;;;;;16.85;11.70;;;;;;;4.96;100.00;93475.91;5066139;28;20032;-70
2024/02/10 00:13:21;;;;;;;24.75;18.70;;;;;;;4.93;100.00;93465.81;5064665;28;20029;-70
2024/02/10 00:15:47;;;;;;;385.50;224.25;;;;;;;4.88;100.00;93462.88;5070941;28;20088;-70
2024/02/10 00:18:12;;;;;;;205.68;141.45;;;;;;;4.91;100.00;93459.94;5073319;28;20036;-70
2024/02/10 00:20:39;;;;;;;104.55;65.13;;;;;;;4.86;100.00;93449.16;5069895;28;20029;-70
2024/02/10 00:23:05;;;;;;;52.65;34.45;;;;;;;4.73;100.00;93442.66;5070878;28;20576;-70
2024/02/10 00:25:31;;;;;;;21.25;16.23;;;;;;;4.67;100.00;93437.25;5072849;28;20028;-70
2024/02/10 00:28:00;;;;;;;18.92;13.38;;;;;;;4.67;100.00;93442.47;5072210;28;20058;-69
2024/02/10 00:30:27;;;;;;;18.95;14.35;;;;;;;4.67;100.00;93427.66;5071492;28;20504;-70
2024/02/10 00:32:53;;;;;;;17.52;13.23;;;;;;;4.68;100.00;93426.69;5065687;28;20038;-70
2024/02/10 00:35:22;;;;;;;19.35;14.20;;;;;;;4.69;100.00;93419.66;5066045;28;20037;-69
2024/02/10 00:37:48;;;;;;;16.63;13.48;;;;;;;4.64;100.00;93421.94;5063656;28;20492;-69
2024/02/10 00:40:14;;;;;;;14.85;12.77;;;;;;;4.63;100.00;93415.91;5065988;28;20032;-70
2024/02/10 00:42:39;;;;;;;16.05;11.38;;;;;;;4.56;100.00;93420.97;5068258;28;20053;-70
2024/02/10 00:45:09;;;;;;;18.95;15.27;;;;;;;4.50;100.00;93416.38;5071146;28;20113;-70
2024/02/10 00:47:35;;;;;;;16.80;10.95;;;;;;;4.41;100.00;93417.34;5066877;28;20028;-70
2024/02/10 00:50:03;;;;;;;15.93;12.75;;;;;;;4.40;100.00;93410.50;5065474;28;20029;-70
2024/02/10 00:52:28;;;;;;;16.92;13.30;;;;;;;4.37;100.00;93409.03;5074308;28;20024;-70
2024/02/10 00:54:54;;;;;;;16.88;13.55;;;;;;;4.40;100.00;93413.13;5068683;28;20772;-70
2024/02/10 00:57:20;;;;;;;16.52;12.30;;;;;;;4.34;100.00;93408.56;5067033;28;20036;-70
2024/02/10 00:59:46;;;;;;;16.83;14.07;;;;;;;4.35;100.00;93402.38;5063302;28;20013;-69
2024/02/10 01:02:17;;;;;;;16.38;14.50;;;;;;;4.29;100.00;93399.41;5062926;28;20036;-69
2024/02/10 01:04:43;;;;;;;11.10;8.88;;;;;;;4.24;100.00;93398.28;5071612;28;20025;-69
2024/02/10 01:07:08;;;;;;;14.05;11.23;;;;;;;4.34;100.00;93393.72;5068282;28;20057;-69
2024/02/10 01:09:33;;;;;;;12.65;9.60;;;;;;;4.21;100.00;93396.78;5061971;28;20088;-69
2024/02/10 01:11:59;;;;;;;11.05;8.85;;;;;;;4.18;100.00;93399.72;5068119;28;20117;-69
2024/02/10 01:14:29;;;;;;;8.60;5.90;;;;;;;4.39;100.00;93401.06;5065524;28;20078;-70
2024/02/10 01:16:55;;;;;;;9.38;6.25;;;;;;;4.32;100.00;93393.06;5071091;28;20113;-69
2024/02/10 01:19:21;;;;;;;9.95;8.95;;;;;;;4.28;100.00;93387.38;5070973;28;20029;-70
2024/02/10 01:21:49;;;;;;;10.15;9.15;;;;;;;4.21;100.00;93391.59;5065045;28;20024;-69
2024/02/10 01:24:14;;;;;;;12.60;9.07;;;;;;;4.16;100.00;93384.25;5079395;28;20029;-69
2024/02/10 01:26:40;;;;;;;12.82;9.48;;;;;;;4.14;100.00;93378.38;5062264;28;20039;-69
2024/02/10 01:29:08;;;;;;;13.63;10.98;;;;;;;4.12;100.00;93367.31;5066287;28;20086;-70
2024/02/10 01:31:34;;;;;;;16.38;13.63;;;;;;;4.16;100.00;93362.59;5070514;28;20481;-69
2024/02/10 01:34:00;;;;;;;17.48;14.32;;;;;;;4.12;100.00;93356.09;5069878;28;20377;-69
2024/02/10 01:36:26;;;;;;;17.15;9.35;;;;;;;4.11;100.00;93350.06;5069423;28;20162;-69
2024/02/10 01:38:51;;;;;;;16.65;11.00;;;;;;;4.12;100.00;93350.88;5069475;28;20081;-69
2024/02/10 01:41:16;;;;;;;17.98;12.38;;;;;;;4.11;100.00;93344.84;5066232;28;20043;-69
2024/02/10 01:43:44;;;;;;;17.52;11.93;;;;;;;4.15;100.00;93340.94;5063533;28;20075;-69
2024/02/10 01:46:15;;;;;;;21.45;15.25;;;;;;;4.16;100.00;93336.56;5068062;28;20033;-69
2024/02/10 01:48:45;;;;;;;19.90;14.05;;;;;;;4.09;100.00;93325.97;5062837;28;20722;-69
2024/02/10 01:51:15;;;;;;;20.27;12.10;;;;;;;4.08;100.00;93331.31;5062406;28;20032;-69
2024/02/10 01:53:41;;;;;;;19.70;16.45;;;;;;;4.10;100.00;93332.00;5068624;28;20562;-69
2024/02/10 01:56:11;;;;;;;17.52;11.35;;;;;;;4.11;100.00;93328.44;5074179;28;20036;-69
2024/02/10 01:58:39;;;;;;;18.73;14.18;;;;;;;4.15;100.00;93316.72;5069957;28;20039;-69
2024/02/10 02:01:05;;;;;;;15.82;9.52;;;;;;;4.11;100.00;93308.41;5074720;28;20025;-69
2024/02/10 02:03:31;;;;;;;14.25;9.30;;;;;;;4.06;100.00;93294.22;5070132;28;20504;-69
2024/02/10 02:05:56;;;;;;;11.63;9.85;;;;;;;4.07;100.00;93288.03;5075397;28;20031;-69
2024/02/10 02:08:22;;;;;;;7.80;6.20;;;;;;;4.22;100.00;93289.03;5068558;28;20024;-69
2024/02/10 02:10:47;;;;;;;10.23;5.75;;;;;;;4.37;100.00;93275.38;5062934;28;20547;-69
2024/02/10 02:13:17;;;;;;;5.07;4.00;;;;;;;4.19;100.00;93273.72;5070678;28;20032;-69
2024/02/10 02:15:42;;;;;;;4.47;3.35;;;;;;;4.11;100.00;93271.94;5072084;28;20501;-69
2024/02/10 02:18:09;;;;;;;5.35;4.05;;;;;;;4.10;100.00;93269.50;5064336;28;20134;-69
2024/02/10 02:20:35;;;;;;;7.63;6.82;;;;;;;4.08;100.00;93261.84;5066307;28;20027;-69
2024/02/10 02:23:03;;;;;;;6.65;6.05;;;;;;;4.08;100.00;93261.03;5066523;28;20108;-69
2024/02/10 02:25:28;;;;;;;6.00;5.40;;;;;;;4.06;100.00;93255.16;5067350;28;20028;-69
2024/02/10 02:27:57;;;;;;;4.40;4.00;;;;;;;4.05;100.00;93256.13;5070150;28;20032;-69
2024/02/10 02:30:23;;;;;;;4.60;4.20;;;;;;;4.06;100.00;93255.16;5070505;28;20532;-70
2024/02/10 02:32:49;;;;;;;4.45;3.75;;;;;;;4.22;100.00;93251.78;5069363;28;20029;-69
2024/02/10 02:35:15;;;;;;;4.38;4.00;;;;;;;4.19;100.00;93257.28;5070613;28;20040;-69
2024/02/10 02:37:41;;;;;;;5.95;5.13;;;;;;;4.19;100.00;93249.47;5071383;28;20021;-69
2024/02/10 02:40:12;;;;;;;4.75;4.30;;;;;;;4.16;100.00;93256.63;5058735;28;20017;-69
2024/02/10 02:42:37;;;;;;;5.63;5.20;;;;;;;4.17;100.00;93239.22;5068679;28;20521;-69
2024/02/10 02:45:05;;;;;;;7.00;4.82;;;;;;;4.17;100.00;93234.03;5071883;28;20051;-69
2024/02/10 02:47:32;;;;;;;5.75;4.82;;;;;;;4.26;100.00;93232.22;5066458;28;20024;-69
2024/02/10 02:49:59;;;;;;;9.93;4.75;;;;;;;4.22;100.00;93231.72;5064026;28;20020;-69
2024/02/10 02:52:27;;;;;;;6.63;4.93;;;;;;;4.27;100.00;93224.22;5068549;28;20021;-69
2024/02/10 02:54:53;;;;;;;6.13;5.15;;;;;;;4.29;100.00;93217.06;5072008;28;20042;-69
2024/02/10 02:57:19;;;;;;;6.68;5.32;;;;;;;4.26;100.00;93211.38;5058836;28;20056;-69
2024/02/10 02:59:46;;;;;;;5.30;4.80;;;;;;;4.24;100.00;93200.31;5070834;28;20021;-69
2024/02/10 03:02:12;;;;;;;6.03;5.03;;;;;;;4.24;100.00;93203.72;5072639;28;20024;-69
2024/02/10 03:04:39;;;;;;;5.32;4.93;;;;;;;4.25;100.00;93189.72;5063595;28;20029;-69
2024/02/10 03:07:04;;;;;;;4.53;4.18;;;;;;;4.27;100.00;93192.97;5074279;28;20032;-69
2024/02/10 03:09:29;;;;;;;4.70;4.30;;;;;;;4.31;100.00;93190.88;5071352;28;20047;-69
2024/02/10 03:11:55;;;;;;;7.85;6.65;;;;;;;4.31;100.00;93190.88;5064868;28;20040;-69
2024/02/10 03:14:20;;;;;;;5.20;4.47;;;;;;;4.38;100.00;93193.63;5061552;28;20101;-69
2024/02/10 03:16:46;;;;;;;5.50;4.22;;;;;;;4.41;100.00;93188.09;5072075;28;20103;-69
2024/02/10 03:19:11;;;;;;;8.32;6.60;;;;;;;4.39;100.00;93187.44;5063650;28;20781;-70
2024/02/10 03:21:36;;;;;;;15.07;10.98;;;;;;;4.42;100.00;93187.09;5066179;28;20108;-69
2024/02/10 03:24:02;;;;;;;10.75;9.63;;;;;;;4.47;100.00;93179.59;5071719;28;20032;-69
2024/02/10 03:26:29;;;;;;;8.48;7.47;;;;;;;4.46;100.00;93175.38;5068426;28;20086;-69
2024/02/10 03:28:56;;;;;;;7.68;6.53;;;;;;;4.47;100.00;93166.56;5061734;28;20474;-70
2024/02/10 03:31:21;;;;;;;7.55;6.82;;;;;;;4.48;100.00;93167.41;5061297;28;20108;-69
2024/02/10 03:33:46;;;;;;;5.90;5.30;;;;;;;4.48;100.00;93162.97;5058028;28;20059;-69
2024/02/10 03:36:12;;;;;;;3.90;3.63;;;;;;;4.61;100.00;93166.88;5066545;28;20021;-69
2024/02/10 03:38:37;;;;;;;3.90;3.60;;;;;;;4.56;100.00;93165.59;5054381;28;20027;-69
2024/02/10 03:41:03;;;;;;;3.88;3.60;;;;;;;4.54;100.00;93159.72;5058214;28;20021;-69
2024/02/10 03:43:29;;;;;;;5.43;3.60;;;;;;;4.55;100.00;93166.56;5066296;28;20045;-70
2024/02/10 03:45:55;;;;;;;4.05;3.75;;;;;;;4.59;100.00;93159.22;5067484;28;20020;-69
2024/02/10 03:48:21;;;;;;;5.40;3.67;;;;;;;4.60;100.00;93155.63;5059625;28;20039;-70
2024/02/10 03:50:47;;;;;;;3.47;3.25;;;;;;;4.59;100.00;93162.63;5062709;28;20028;-70
2024/02/10 03:53:14;;;;;;;3.88;3.38;;;;;;;4.57;100.00;93156.78;5068787;28;20049;-69
2024/02/10 03:55:39;;;;;;;3.42;3.20;;;;;;;4.61;100.00;93153.84;5063601;28;20037;-70
2024/02/10 03:58:06;;;;;;;4.35;4.05;;;;;;;4.65;100.00;93150.75;5060922;28;20085;-69
2024/02/10 04:00:36;;;;;;;3.80;3.50;;;;;;;4.66;100.00;93143.72;5073049;28;20028;-70
2024/02/10 04:03:02;;;;;;;4.22;3.92;;;;;;;4.66;100.00;93139.34;5054510;28;20065;-69
2024/02/10 04:05:33;;;;;;;4.60;4.22;;;;;;;4.68;100.00;93137.38;5067069;28;20024;-69
2024/02/10 04:07:58;;;;;;;6.10;5.53;;;;;;;4.67;100.00;93132.31;5055449;28;20501;-70
2024/02/10 04:10:24;;;;;;;9.30;7.47;;;;;;;4.67;100.00;93137.53;5065270;28;20982;-70
2024/02/10 04:12:49;;;;;;;6.65;6.05;;;;;;;4.71;100.00;93136.19;5067111;28;20031;-70
2024/02/10 04:15:15;;;;;;;11.80;10.60;;;;;;;4.73;100.00;93139.44;5062217;28;20032;-69
2024/02/10 04:17:49;;;;;;;10.90;9.05;;;;;;;4.78;100.00;93139.78;5070138;28;20028;-70
2024/02/10 04:20:19;;;;;;;7.68;6.78;;;;;;;4.81;100.00;93142.03;5066229;28;20086;-70
2024/02/10 04:22:45;;;;;;;6.78;6.28;;;;;;;4.81;100.00;93130.78;5065475;28;20535;-69
2024/02/10 04:25:12;;;;;;;5.57;5.18;;;;;;;4.78;100.00;93129.34;5057546;28;20032;-69
2024/02/10 04:27:38;;;;;;;4.93;4.32;;;;;;;4.81;100.00;93131.59;5057679;28;20104;-69
2024/02/10 04:30:04;;;;;;;3.80;3.50;;;;;;;4.86;100.00;93124.09;5057968;28;20057;-70
2024/02/10 04:32:30;;;;;;;3.97;3.67;;;;;;;4.91;100.00;93133.19;5067681;28;20032;-70
2024/02/10 04:34:55;;;;;;;3.50;3.30;;;;;;;4.91;100.00;93131.41;5069282;28;20401;-69
2024/02/10 04:37:21;;;;;;;3.45;3.17;;;;;;;4.88;100.00;93132.53;5070596;28;20025;-70
2024/02/10 04:39:46;;;;;;;32.22;29.02;;;;;;;4.87;100.00;93140.56;5064446;28;20055;-69
2024/02/10 04:42:12;;;;;;;28.75;24.75;;;;;;;4.87;100.00;93137.94;5063398;28;20495;-69
2024/02/10 04:44:38;;;;;;;9.82;8.93;;;;;;;4.86;100.00;93137.13;5074429;28;20036;-69
2024/02/10 04:47:04;;;;;;;8.35;7.63;;;;;;;4.80;100.00;93129.16;5060471;28;20070;-69
2024/02/10 04:49:29;;;;;;;9.57;7.88;;;;;;;4.79;100.00;93138.78;5061004;28;20156;-70
2024/02/10 04:51:54;;;;;;;13.82;11.45;;;;;;;4.80;100.00;93145.63;5070424;28;20028;-70
2024/02/10 04:54:20;;;;;;;11.45;10.15;;;;;;;4.81;100.00;93152.47;5059344;28;20401;-69
2024/02/10 04:56:45;;;;;;;4.10;3.80;;;;;;;4.93;100.00;93154.69;5064132;28;20025;-69
2024/02/10 04:59:18;;;;;;;3.78;3.40;;;;;;;4.81;100.00;93151.63;5062379;28;20025;-69
2024/02/10 05:01:43;;;;;;;4.22;3.80;;;;;;;4.81;100.00;93162.91;5058576;28;20104;-69
2024/02/10 05:04:14;;;;;;;5.55;5.15;;;;;;;4.85;100.00;93156.34;5058400;28;20029;-70
2024/02/10 05:06:42;;;;;;;5.40;4.45;;;;;;;4.76;100.00;93162.59;5060187;28;20039;-69
2024/02/10 05:09:08;;;;;;;6.88;4.95;;;;;;;4.74;100.00;93154.09;5066469;28;20087;-69
2024/02/10 05:11:35;;;;;;;5.82;5.32;;;;;;;4.77;100.00;93155.56;5073691;28;20017;-69
2024/02/10 05:14:01;;;;;;;5.68;5.25;;;;;;;4.73;100.00;93152.47;5064990;28;20086;-69
2024/02/10 05:16:26;;;;;;;5.78;5.22;;;;;;;4.70;100.00;93153.66;5056575;28;20016;-69
2024/02/10 05:18:54;;;;;;;5.80;5.30;;;;;;;4.70;100.00;93139.78;5056048;28;20035;-69
2024/02/10 05:21:20;;;;;;;5.70;5.20;;;;;;;4.72;100.00;93135.22;5075924;28;20027;-69
2024/02/10 05:23:49;;;;;;;6.68;5.57;;;;;;;4.74;100.00;93135.84;5060373;28;20452;-70
2024/02/10 05:26:17;;;;;;;5.07;4.55;;;;;;;4.74;100.00;93130.66;5068134;28;20032;-70
2024/02/10 05:28:44;;;;;;;5.75;5.18;;;;;;;4.76;100.00;93123.50;5070713;28;20019;-70
2024/02/10 05:31:11;;;;;;;5.93;5.15;;;;;;;4.75;100.00;93127.06;5057400;28;20033;-69
2024/02/10 05:33:38;;;;;;;5.43;4.90;;;;;;;4.78;100.00;93125.91;5066401;28;20025;-69
2024/02/10 05:36:03;;;;;;;5.35;4.55;;;;;;;4.77;100.00;93117.28;5072714;28;20028;-70
2024/02/10 05:38:29;;;;;;;7.45;4.82;;;;;;;4.85;100.00;93122.47;5062431;28;20028;-70
2024/02/10 05:40:54;;;;;;;4.90;4.50;;;;;;;4.84;100.00;93120.84;5072009;28;20095;-69
2024/02/10 05:43:20;;;;;;;9.48;4.45;;;;;;;4.77;100.00;93129.50;5067231;28;20056;-70
2024/02/10 05:45:45;;;;;;;4.50;4.20;;;;;;;4.76;100.00;93107.03;5060678;28;20557;-70
2024/02/10 05:48:10;;;;;;;5.10;4.70;;;;;;;4.79;100.00;93104.91;5062647;28;20440;-70
2024/02/10 05:50:37;;;;;;;4.88;4.45;;;;;;;4.82;100.00;93111.56;5072772;28;20036;-70
2024/02/10 05:53:03;;;;;;;6.68;4.38;;;;;;;4.84;100.00;93093.94;5062326;28;20048;-69
2024/02/10 05:55:29;;;;;;;4.38;4.07;;;;;;;4.86;100.00;93087.59;5062780;28;20474;-69
2024/02/10 05:57:55;;;;;;;4.63;3.85;;;;;;;4.86;100.00;93081.53;5055619;28;20056;-69
2024/02/10 06:00:22;;;;;;;4.35;4.05;;;;;;;4.87;100.00;93089.22;5055780;28;20531;-70
2024/02/10 06:02:48;;;;;;;4.45;4.05;;;;;;;4.84;100.00;93086.94;5054382;28;20510;-70
2024/02/10 06:05:14;;;;;;;8.05;4.53;;;;;;;4.83;100.00;93093.16;5071186;28;20645;-69
2024/02/10 06:07:43;;;;;;;4.63;4.22;;;;;;;4.80;100.00;93096.09;5062223;28;20050;-69
2024/02/10 06:10:12;;;;;;;6.30;5.70;;;;;;;4.77;100.00;93087.78;5058878;28;20025;-69
2024/02/10 06:12:47;;;;;;;4.18;3.88;;;;;;;4.79;100.00;93096.25;5054473;28;20084;-69
2024/02/10 06:15:13;;;;;;;5.03;4.60;;;;;;;4.80;100.00;93095.28;5062785;28;20020;-69
2024/02/10 06:17:39;;;;;;;4.80;4.40;;;;;;;4.76;100.00;93100.03;5058791;28;20037;-69
2024/02/10 06:20:13;;;;;;;4.85;4.10;;;;;;;4.73;100.00;93111.59;5067212;28;20079;-69
2024/02/10 06:22:40;;;;;;;4.65;4.30;;;;;;;4.71;100.00;93103.13;5070725;28;20040;-70
2024/02/10 06:25:06;;;;;;;4.15;3.85;;;;;;;4.75;100.00;93097.59;5061828;28;20045;-69
2024/02/10 06:27:34;;;;;;;4.80;4.40;;;;;;;4.77;100.00;93088.63;5069844;28;20024;-69
2024/02/10 06:30:00;;;;;;;6.40;4.40;;;;;;;4.78;100.00;93079.00;5057219;28;20036;-69
2024/02/10 06:32:26;;;;;;;6.07;4.47;;;;;;;4.83;100.00;93090.53;5059117;28;20562;-69
2024/02/10 06:34:53;;;;;;;9.15;8.27;;;;;;;4.85;100.00;93090.34;5064220;28;20159;-69
2024/02/10 06:37:25;;;;;;;36.75;33.55;;;;;;;4.84;100.00;93094.78;5066274;28;20050;-69
2024/02/10 06:39:50;;;;;;;21.73;19.90;;;;;;;4.84;100.00;93092.16;5057297;28;20032;-69
2024/02/10 06:42:17;;;;;;;17.30;15.82;;;;;;;4.87;100.00;93099.63;5068533;28;20516;-69
2024/02/10 06:44:43;;;;;;;13.40;12.27;;;;;;;4.94;100.00;93093.72;5067029;28;20485;-69
2024/02/10 06:47:08;;;;;;;13.30;12.13;;;;;;;4.98;100.00;93095.84;5055071;28;20052;-70
2024/02/10 06:49:34;;;;;;;10.52;9.63;;;;;;;4.92;100.00;93095.69;5080398;28;20029;-69
2024/02/10 06:52:03;;;;;;;8.05;7.35;;;;;;;4.93;100.00;93092.09;5061705;28;20033;-69
2024/02/10 06:54:29;;;;;;;8.85;8.02;;;;;;;4.97;100.00;93093.38;5058603;28;20030;-69
2024/02/10 06:56:57;;;;;;;8.32;7.57;;;;;;;5.02;100.00;93093.69;5062069;28;20033;-70
2024/02/10 06:59:23;;;;;;;7.95;7.20;;;;;;;5.01;100.00;93095.47;5072354;28;20021;-69
2024/02/10 07:01:52;;;;;;;8.25;7.65;;;;;;;5.04;100.00;93098.72;5073648;28;20148;-69
2024/02/10 07:04:18;;;;;;;13.30;12.20;;;;;;;5.08;100.00;93095.63;5054543;28;20116;-69
2024/02/10 07:06:43;;;;;;;13.70;12.35;;;;;;;5.08;100.00;93094.78;5060157;28;20063;-70
2024/02/10 07:09:08;;;;;;;17.00;14.25;;;;;;;5.07;100.00;93090.56;5057494;28;20113;-69
2024/02/10 07:11:34;;;;;;;16.00;14.57;;;;;;;5.08;100.00;93093.00;5054087;28;20429;-71
2024/02/10 07:13:59;;;;;;;23.60;21.48;;;;;;;5.08;100.00;93093.00;5057874;28;20024;-70
2024/02/10 07:16:24;;;;;;;21.67;19.70;;;;;;;5.07;100.00;93094.00;5074375;28;20583;-70
2024/02/10 07:18:50;;;;;;;25.30;23.08;;;;;;;5.07;100.00;93091.38;5059669;28;20124;-69
2024/02/10 07:21:15;;;;;;;16.67;14.93;;;;;;;5.10;100.00;93085.81;5068748;28;20016;-69
2024/02/10 07:23:43;;;;;;;19.15;17.65;;;;;;;5.10;100.00;93080.59;5066892;28;20047;-69
2024/02/10 07:26:09;;;;;;;15.38;13.93;;;;;;;5.07;100.00;93088.78;5068917;28;20024;-69
2024/02/10 07:28:34;;;;;;;15.90;14.52;;;;;;;5.11;100.00;93090.06;5056061;28;20028;-69
2024/02/10 07:31:02;;;;;;;15.63;14.32;;;;;;;5.13;100.00;93097.72;5062225;28;20447;-69
2024/02/10 07:33:31;;;;;;;18.88;17.15;;;;;;;5.21;100.00;93102.06;5054696;28;20150;-69
2024/02/10 07:35:57;;;;;;;20.25;18.52;;;;;;;5.31;100.00;93107.88;5058595;28;20029;-69
2024/02/10 07:38:23;;;;;;;24.63;22.33;;;;;;;5.39;100.00;93102.59;5063660;28;20036;-69
2024/02/10 07:40:48;;;;;;;22.20;20.15;;;;;;;5.47;100.00;93106.13;5063215;28;20025;-69
2024/02/10 07:43:15;;;;;;;18.83;17.05;;;;;;;5.51;100.00;93108.19;5054057;28;20428;-70
2024/02/10 07:45:42;;;;;;;18.40;16.77;;;;;;;5.59;100.00;93108.16;5058655;28;20045;-69
2024/02/10 07:48:08;;;;;;;21.13;18.90;;;;;;;5.66;100.00;93108.28;5061482;28;20538;-70
2024/02/10 07:50:36;;;;;;;23.60;21.20;;;;;;;5.70;100.00;93114.78;5065949;28;20044;-69
2024/02/10 07:53:02;;;;;;;20.75;18.75;;;;;;;5.78;100.00;93105.22;5071509;28;20021;-70
2024/02/10 07:55:28;;;;;;;19.98;18.10;;;;;;;5.86;100.00;93105.19;5060625;28;20025;-69
2024/02/10 07:57:56;;;;;;;21.70;19.45;;;;;;;5.95;100.00;93100.69;5058637;28;20385;-70
2024/02/10 08:00:22;;;;;;;16.27;14.73;;;;;;;6.08;100.00;93100.91;5058655;28;20017;-69
2024/02/10 08:02:47;;;;;;;11.35;10.35;;;;;;;6.20;100.00;93109.13;5058237;28;20025;-70
2024/02/10 08:05:16;;;;;;;13.30;12.20;;;;;;;6.20;100.00;93103.91;5068831;28;20055;-70
2024/02/10 08:07:41;;;;;;;10.80;9.90;;;;;;;6.25;100.00;93091.09;5064311;28;20020;-69
2024/02/10 08:10:07;;;;;;;9.70;8.80;;;;;;;6.39;100.00;93094.72;5066521;28;20032;-70
2024/02/10 08:12:33;;;;;;;9.05;8.13;;;;;;;6.37;100.00;93094.09;5058064;28;20078;-69
2024/02/10 08:14:59;;;;;;;9.63;8.82;;;;;;;6.46;100.00;93097.44;5069436;28;20040;-70
2024/02/10 08:17:30;;;;;;;8.68;7.85;;;;;;;6.59;100.00;93092.38;5063645;28;20027;-70
2024/02/10 08:19:59;;;;;;;9.63;8.73;;;;;;;6.58;100.00;93079.47;5077037;28;20032;-70
2024/02/10 08:22:25;;;;;;;10.30;9.30;;;;;;;6.65;100.00;93075.16;5070061;28;20020;-70
2024/02/10 08:24:55;;;;;;;10.10;9.07;;;;;;;6.62;100.00;93074.72;5057782;28;20025;-70
2024/02/10 08:27:26;;;;;;;15.73;14.27;;;;;;;6.65;100.00;93077.78;5058166;28;20036;-70
2024/02/10 08:29:52;;;;;;;11.95;10.80;;;;;;;6.73;100.00;93069.00;5068813;28;20874;-70
2024/02/10 08:32:18;;;;;;;10.52;9.63;;;;;;;6.81;100.00;93066.31;5062146;28;20508;-70
2024/02/10 08:34:43;;;;;;;11.23;10.23;;;;;;;6.94;100.00;93072.66;5072822;28;20020;-70
2024/02/10 08:37:10;;;;;;;11.82;10.82;;;;;;;7.01;100.00;93074.38;5069885;28;20036;-70
2024/02/10 08:39:37;;;;;;;13.00;11.90;;;;;;;7.14;100.00;93072.91;5070821;28;20016;-70
2024/02/10 08:42:05;;;;;;;12.02;10.93;;;;;;;7.22;100.00;93070.16;5057907;28;20056;-70
2024/02/10 08:44:31;;;;;;;11.73;10.70;;;;;;;7.23;100.00;93065.75;5058940;28;20449;-70
2024/02/10 08:46:57;;;;;;;12.07;11.00;;;;;;;7.26;100.00;93062.75;5058266;28;20029;-70
2024/02/10 08:49:22;;;;;;;27.20;24.42;;;;;;;7.34;100.00;93070.47;5056921;28;20029;-69
2024/02/10 08:51:49;;;;;;;18.48;16.85;;;;;;;7.49;100.00;93082.69;5070091;28;20107;-69
2024/02/10 08:54:16;;;;;;;20.35;18.55;;;;;;;7.70;100.00;93076.63;5058761;28;20456;-69
2024/02/10 08:56:43;;;;;;;19.17;17.55;;;;;;;7.87;100.00;93064.91;5063539;28;20024;-70
2024/02/10 08:59:12;;;;;;;19.75;17.95;;;;;;;8.02;100.00;93061.38;5069643;28;20085;-70
2024/02/10 09:01:41;;;;;;;13.90;12.75;;;;;;;8.10;100.00;93061.22;5057385;28;20020;-69
2024/02/10 09:04:07;;;;;;;14.77;13.45;;;;;;;8.23;100.00;93060.50;5064178;28;20489;-69
2024/02/10 09:06:32;;;;;;;17.20;15.70;;;;;;;8.38;100.00;93067.44;5075574;28;20509;-69
2024/02/10 09:08:58;;;;;;;16.52;14.98;;;;;;;8.51;100.00;93041.34;5072692;28;20044;-69
2024/02/10 09:11:25;;;;;;;20.70;16.63;;;;;;;8.51;100.00;93036.09;5074695;28;20043;-69
2024/02/10 09:13:51;;;;;;;13.52;12.32;;;;;;;8.53;100.00;93039.34;5062457;28;20054;-69
2024/02/10 09:16:17;;;;;;;13.23;12.13;;;;;;;8.55;100.00;93020.78;5066100;28;20029;-69
2024/02/10 09:18:43;;;;;;;14.18;12.98;;;;;;;8.53;100.00;93007.88;5059859;28;20082;-69
2024/02/10 09:21:15;;;;;;;13.27;12.18;;;;;;;8.55;100.00;93012.91;5064052;28;20018;-69
2024/02/10 09:23:42;;;;;;;12.77;11.65;;;;;;;8.69;100.00;92996.22;5068558;28;20056;-70
2024/02/10 09:26:08;;;;;;;13.93;12.85;;;;;;;8.67;100.00;92989.53;5058109;28;20020;-69
2024/02/10 09:28:34;;;;;;;15.25;13.88;;;;;;;8.70;100.00;92978.66;5060643;28;20029;-71
2024/02/10 09:31:01;;;;;;;15.32;13.82;;;;;;;8.70;100.00;92973.41;5061441;28;20028;-69
2024/02/10 09:33:28;;;;;;;15.70;14.32;;;;;;;8.73;100.00;92976.47;5064090;28;20039;-70
2024/02/10 09:35:53;;;;;;;21.52;19.52;;;;;;;8.94;100.00;92971.25;5072540;28;20115;-69
2024/02/10 09:38:22;;;;;;;14.48;13.38;;;;;;;9.26;100.00;92964.44;5070770;28;20075;-69
2024/02/10 09:40:48;;;;;;;14.75;13.38;;;;;;;9.39;100.00;92962.84;5062622;28;20025;-71
2024/02/10 09:43:17;;;;;;;15.10;13.77;;;;;;;9.56;100.00;92958.81;5071604;28;20506;-71
2024/02/10 09:45:45;;;;;;;18.48;16.17;;;;;;;9.86;100.00;92965.44;5068033;28;20024;-70
2024/02/10 09:48:19;;;;;;;14.80;13.60;;;;;;;9.72;100.00;92947.06;5069659;28;20037;-70
2024/02/10 09:50:45;;;;;;;22.65;20.45;;;;;;;9.66;100.00;92955.78;5075282;28;20039;-70
2024/02/10 09:53:12;;;;;;;16.10;14.75;;;;;;;9.63;100.00;92956.19;5070269;28;20025;-70
2024/02/10 09:55:37;;;;;;;15.75;14.38;;;;;;;9.55;100.00;92959.00;5072631;28;20035;-69
2024/02/10 09:58:04;;;;;;;16.10;14.65;;;;;;;9.49;100.00;92967.69;5076351;28;20024;-69
2024/02/10 10:00:31;;;;;;;14.25;12.77;;;;;;;9.53;100.00;92974.97;5075993;28;20111;-69
2024/02/10 10:03:00;;;;;;;14.02;12.93;;;;;;;9.42;100.00;92978.19;5077502;28;20103;-69
2024/02/10 10:05:29;;;;;;;15.50;14.13;;;;;;;9.40;100.00;92974.97;5074142;28;20032;-69
2024/02/10 10:07:55;;;;;;;15.85;14.43;;;;;;;9.41;100.00;92972.16;5069510;28;20470;-70
2024/02/10 10:10:21;;;;;;;13.40;12.40;;;;;;;9.41;100.00;92976.56;5079701;28;20036;-71
2024/02/10 10:12:48;;;;;;;12.80;11.80;;;;;;;9.52;100.00;92977.78;5068965;28;20029;-71
2024/02/10 10:15:14;;;;;;;13.43;12.32;;;;;;;9.45;100.00;92965.47;5069970;28;20017;-72
2024/02/10 10:17:39;;;;;;;12.20;10.90;;;;;;;9.44;100.00;92966.47;5079080;28;20581;-71
2024/02/10 10:20:05;;;;;;;13.18;11.98;;;;;;;9.56;100.00;92960.59;5077555;28;20024;-71
2024/02/10 10:22:37;;;;;;;12.15;11.13;;;;;;;9.49;100.00;92950.09;5079580;28;20028;-71
2024/02/10 10:25:06;;;;;;;11.55;10.48;;;;;;;9.48;100.00;92955.56;5064870;28;20108;-70
2024/02/10 10:27:32;;;;;;;11.90;11.00;;;;;;;9.49;100.00;92957.19;5068002;27;20025;-71
2024/02/10 10:29:57;;;;;;;12.45;11.35;;;;;;;9.49;100.00;92959.81;5070039;28;20016;-71
2024/02/10 10:32:27;;;;;;;12.73;11.45;;;;;;;9.52;100.00;92960.22;5069238;28;20031;-71
2024/02/10 10:34:57;;;;;;;19.20;17.50;;;;;;;9.51;100.00;92955.97;5073550;28;20052;-71
2024/02/10 10:37:24;;;;;;;12.93;11.85;;;;;;;9.55;100.00;92945.88;5070307;28;20102;-71
2024/02/10 10:39:51;;;;;;;10.82;9.95;;;;;;;9.58;100.00;92943.66;5066518;28;20020;-71
2024/02/10 10:42:20;;;;;;;12.38;11.38;;;;;;;9.70;100.00;92937.75;5063734;28;20443;-72
2024/02/10 10:44:50;;;;;;;13.57;12.30;;;;;;;9.93;100.00;92939.97;5071172;28;20094;-71
2024/02/10 10:47:23;;;;;;;12.30;11.20;;;;;;;10.03;100.00;92937.69;5075481;28;20032;-71
2024/02/10 10:49:50;;;;;;;14.25;13.02;;;;;;;10.12;100.00;92914.63;5069948;28;20020;-71
2024/02/10 10:52:20;;;;;;;11.80;10.77;;;;;;;10.25;100.00;92926.91;5068444;28;20440;-71
2024/02/10 10:54:47;;;;;;;11.88;10.77;;;;;;;10.28;100.00;92929.16;5058782;28;20048;-71
2024/02/10 10:57:22;;;;;;;20.38;18.05;;;;;;;10.14;100.00;92933.63;5059707;28;20025;-71
2024/02/10 11:00:15;;;;;;;14.20;12.90;;;;;;;9.97;100.00;92928.03;5054574;28;20449;-72
2024/02/10 11:02:42;;;;;;;19.58;17.73;;;;;;;9.98;100.00;92934.09;5058783;28;20094;-71
2024/02/10 11:05:16;;;;;;;13.32;11.95;;;;;;;9.78;100.00;92942.81;5064406;28;20029;-71
2024/02/10 11:07:48;;;;;;;15.50;14.18;;;;;;;9.78;100.00;92947.25;5056538;28;20045;-71
2024/02/10 11:10:34;;;;;;;11.70;10.60;;;;;;;9.63;100.00;92948.31;5058688;28;20052;-71
2024/02/10 11:13:00;;;;;;;14.27;12.98;;;;;;;9.52;100.00;92956.78;5067647;28;20029;-70
2024/02/10 11:15:26;;;;;;;14.05;12.73;;;;;;;9.50;100.00;92959.59;5061620;28;20114;-70
2024/02/10 11:18:00;;;;;;;10.43;9.32;;;;;;;9.43;100.00;92946.50;5059159;28;20013;-71
2024/02/10 11:20:30;;;;;;;10.48;9.57;;;;;;;9.49;100.00;92941.44;5054639;28;20024;-71
2024/02/10 11:22:57;;;;;;;10.27;9.38;;;;;;;9.52;100.00;92947.09;5076592;28;20025;-71